sensor_id;sensor_type;location;lat;lon;timestamp;P1;durP1;ratioP1;P2;durP2;ratioP2
50733;SDS011;36701;51.798;19.474;2022-11-15T00:00:34;106.35;;;24.87;;
50733;SDS011;36701;51.798;19.474;2022-11-15T00:03:20;72.97;;;20.83;;
50733;SDS011;36701;51.798;19.474;2022-11-15T00:06:08;84.95;;;28.87;;
50733;SDS011;36701;51.798;19.474;2022-11-15T00:08:53;100.72;;;26.40;;
50733;SDS011;36701;51.798;19.474;2022-11-15T00:11:38;105.35;;;28.10;;
50733;SDS011;36701;51.798;19.474;2022-11-15T00:14:23;87.15;;;26.15;;
50733;SDS011;36701;51.798;19.474;2022-11-15T00:17:08;88.32;;;25.83;;
50733;SDS011;36701;51.798;19.474;2022-11-15T00:19:53;68.28;;;21.92;;
50733;SDS011;36701;51.798;19.474;2022-11-15T00:22:38;172.45;;;33.90;;
50733;SDS011;36701;51.798;19.474;2022-11-15T00:25:22;260.15;;;37.05;;
50733;SDS011;36701;51.798;19.474;2022-11-15T00:28:08;128.32;;;31.90;;
50733;SDS011;36701;51.798;19.474;2022-11-15T00:30:52;147.20;;;33.97;;
50733;SDS011;36701;51.798;19.474;2022-11-15T00:33:38;81.95;;;25.77;;
50733;SDS011;36701;51.798;19.474;2022-11-15T00:36:23;96.05;;;24.83;;
50733;SDS011;36701;51.798;19.474;2022-11-15T00:39:08;118.80;;;29.83;;
50733;SDS011;36701;51.798;19.474;2022-11-15T00:41:53;101.60;;;27.95;;
50733;SDS011;36701;51.798;19.474;2022-11-15T00:44:32;91.50;;;22.33;;
50733;SDS011;36701;51.798;19.474;2022-11-15T00:47:17;94.15;;;17.05;;
50733;SDS011;36701;51.798;19.474;2022-11-15T00:50:02;62.97;;;20.27;;
50733;SDS011;36701;51.798;19.474;2022-11-15T00:52:47;74.75;;;25.08;;
50733;SDS011;36701;51.798;19.474;2022-11-15T00:55:33;115.43;;;29.25;;
50733;SDS011;36701;51.798;19.474;2022-11-15T00:58:17;164.18;;;37.60;;
50733;SDS011;36701;51.798;19.474;2022-11-15T01:01:09;103.72;;;27.48;;
50733;SDS011;36701;51.798;19.474;2022-11-15T01:03:55;86.25;;;25.23;;
50733;SDS011;36701;51.798;19.474;2022-11-15T01:06:40;69.30;;;19.45;;
50733;SDS011;36701;51.798;19.474;2022-11-15T01:09:25;99.10;;;25.27;;
50733;SDS011;36701;51.798;19.474;2022-11-15T01:12:11;78.47;;;24.90;;
50733;SDS011;36701;51.798;19.474;2022-11-15T01:14:56;39.55;;;13.50;;
50733;SDS011;36701;51.798;19.474;2022-11-15T01:17:41;95.47;;;26.45;;
50733;SDS011;36701;51.798;19.474;2022-11-15T01:20:26;65.32;;;18.52;;
50733;SDS011;36701;51.798;19.474;2022-11-15T01:23:11;72.55;;;21.87;;
50733;SDS011;36701;51.798;19.474;2022-11-15T01:25:59;89.18;;;24.40;;
50733;SDS011;36701;51.798;19.474;2022-11-15T01:28:45;98.95;;;27.67;;
50733;SDS011;36701;51.798;19.474;2022-11-15T01:31:30;81.72;;;25.65;;
50733;SDS011;36701;51.798;19.474;2022-11-15T01:34:15;79.07;;;25.15;;
50733;SDS011;36701;51.798;19.474;2022-11-15T01:37:00;74.32;;;23.60;;
50733;SDS011;36701;51.798;19.474;2022-11-15T01:39:45;69.22;;;21.42;;
50733;SDS011;36701;51.798;19.474;2022-11-15T01:42:30;83.25;;;23.35;;
50733;SDS011;36701;51.798;19.474;2022-11-15T01:45:15;107.00;;;25.08;;
50733;SDS011;36701;51.798;19.474;2022-11-15T01:48:00;98.75;;;23.48;;
50733;SDS011;36701;51.798;19.474;2022-11-15T01:50:45;93.68;;;23.52;;
50733;SDS011;36701;51.798;19.474;2022-11-15T01:53:30;99.28;;;24.63;;
50733;SDS011;36701;51.798;19.474;2022-11-15T01:56:19;142.35;;;23.50;;
50733;SDS011;36701;51.798;19.474;2022-11-15T01:59:07;74.45;;;19.23;;
50733;SDS011;36701;51.798;19.474;2022-11-15T02:01:53;148.18;;;29.60;;
50733;SDS011;36701;51.798;19.474;2022-11-15T02:04:45;89.78;;;21.20;;
50733;SDS011;36701;51.798;19.474;2022-11-15T02:07:32;81.25;;;24.05;;
50733;SDS011;36701;51.798;19.474;2022-11-15T02:10:20;80.07;;;28.15;;
50733;SDS011;36701;51.798;19.474;2022-11-15T02:13:07;78.37;;;22.48;;
50733;SDS011;36701;51.798;19.474;2022-11-15T02:18:48;69.85;;;24.08;;
50733;SDS011;36701;51.798;19.474;2022-11-15T02:22:00;101.38;;;23.10;;
50733;SDS011;36701;51.798;19.474;2022-11-15T02:42:56;64.35;;;20.60;;
50733;SDS011;36701;51.798;19.474;2022-11-15T02:46:07;73.25;;;21.23;;
50733;SDS011;36701;51.798;19.474;2022-11-15T02:48:59;73.75;;;19.55;;
50733;SDS011;36701;51.798;19.474;2022-11-15T02:51:44;95.75;;;24.05;;
50733;SDS011;36701;51.798;19.474;2022-11-15T02:54:38;85.07;;;24.65;;
50733;SDS011;36701;51.798;19.474;2022-11-15T02:57:28;94.93;;;22.83;;
50733;SDS011;36701;51.798;19.474;2022-11-15T03:00:36;53.13;;;16.52;;
50733;SDS011;36701;51.798;19.474;2022-11-15T03:12:49;91.28;;;22.30;;
50733;SDS011;36701;51.798;19.474;2022-11-15T03:16:03;54.45;;;16.30;;
50733;SDS011;36701;51.798;19.474;2022-11-15T03:18:49;55.17;;;17.65;;
50733;SDS011;36701;51.798;19.474;2022-11-15T03:21:47;55.28;;;17.12;;
50733;SDS011;36701;51.798;19.474;2022-11-15T03:24:34;71.65;;;21.77;;
50733;SDS011;36701;51.798;19.474;2022-11-15T03:27:23;65.62;;;18.73;;
50733;SDS011;36701;51.798;19.474;2022-11-15T03:30:11;62.88;;;19.77;;
50733;SDS011;36701;51.798;19.474;2022-11-15T03:32:57;58.97;;;19.85;;
50733;SDS011;36701;51.798;19.474;2022-11-15T03:35:45;66.03;;;18.52;;
50733;SDS011;36701;51.798;19.474;2022-11-15T03:38:31;57.88;;;21.20;;
50733;SDS011;36701;51.798;19.474;2022-11-15T03:41:23;61.72;;;19.90;;
50733;SDS011;36701;51.798;19.474;2022-11-15T03:44:15;59.05;;;18.02;;
50733;SDS011;36701;51.798;19.474;2022-11-15T03:50:19;77.45;;;19.37;;
50733;SDS011;36701;51.798;19.474;2022-11-15T03:53:06;51.22;;;16.58;;
50733;SDS011;36701;51.798;19.474;2022-11-15T03:55:52;53.60;;;17.17;;
50733;SDS011;36701;51.798;19.474;2022-11-15T03:58:37;46.47;;;15.00;;
50733;SDS011;36701;51.798;19.474;2022-11-15T04:01:21;46.05;;;16.15;;
50733;SDS011;36701;51.798;19.474;2022-11-15T04:04:07;104.87;;;25.40;;
50733;SDS011;36701;51.798;19.474;2022-11-15T04:06:52;48.20;;;17.00;;
50733;SDS011;36701;51.798;19.474;2022-11-15T04:09:37;54.13;;;16.42;;
50733;SDS011;36701;51.798;19.474;2022-11-15T04:12:41;44.88;;;15.32;;
50733;SDS011;36701;51.798;19.474;2022-11-15T04:15:31;38.35;;;14.30;;
50733;SDS011;36701;51.798;19.474;2022-11-15T04:18:15;175.07;;;21.25;;
50733;SDS011;36701;51.798;19.474;2022-11-15T04:21:00;45.40;;;14.93;;
50733;SDS011;36701;51.798;19.474;2022-11-15T04:24:04;51.60;;;18.08;;
50733;SDS011;36701;51.798;19.474;2022-11-15T04:26:49;55.45;;;14.98;;
50733;SDS011;36701;51.798;19.474;2022-11-15T04:29:34;50.50;;;13.93;;
50733;SDS011;36701;51.798;19.474;2022-11-15T04:32:19;49.13;;;14.68;;
50733;SDS011;36701;51.798;19.474;2022-11-15T04:35:04;31.58;;;12.52;;
50733;SDS011;36701;51.798;19.474;2022-11-15T04:37:49;51.15;;;16.37;;
50733;SDS011;36701;51.798;19.474;2022-11-15T04:40:34;44.65;;;13.30;;
50733;SDS011;36701;51.798;19.474;2022-11-15T04:43:20;55.97;;;14.45;;
50733;SDS011;36701;51.798;19.474;2022-11-15T04:46:04;42.30;;;14.60;;
50733;SDS011;36701;51.798;19.474;2022-11-15T04:48:50;51.90;;;16.60;;
50733;SDS011;36701;51.798;19.474;2022-11-15T04:51:36;45.22;;;15.70;;
50733;SDS011;36701;51.798;19.474;2022-11-15T04:54:21;58.30;;;16.50;;
50733;SDS011;36701;51.798;19.474;2022-11-15T04:56:54;37.05;;;16.60;;
50733;SDS011;36701;51.798;19.474;2022-11-15T04:59:38;49.05;;;14.85;;
50733;SDS011;36701;51.798;19.474;2022-11-15T05:02:23;44.88;;;15.80;;
50733;SDS011;36701;51.798;19.474;2022-11-15T05:05:08;98.95;;;19.65;;
50733;SDS011;36701;51.798;19.474;2022-11-15T05:07:53;40.03;;;14.70;;
50733;SDS011;36701;51.798;19.474;2022-11-15T05:10:38;65.20;;;15.95;;
50733;SDS011;36701;51.798;19.474;2022-11-15T05:13:23;65.20;;;16.95;;
50733;SDS011;36701;51.798;19.474;2022-11-15T05:16:08;71.40;;;13.80;;
50733;SDS011;36701;51.798;19.474;2022-11-15T05:18:53;78.07;;;16.20;;
50733;SDS011;36701;51.798;19.474;2022-11-15T05:21:39;56.30;;;19.33;;
50733;SDS011;36701;51.798;19.474;2022-11-15T05:24:24;40.30;;;15.23;;
50733;SDS011;36701;51.798;19.474;2022-11-15T05:27:08;35.00;;;13.48;;
50733;SDS011;36701;51.798;19.474;2022-11-15T05:29:59;54.28;;;17.70;;
50733;SDS011;36701;51.798;19.474;2022-11-15T05:32:45;65.93;;;19.70;;
50733;SDS011;36701;51.798;19.474;2022-11-15T05:35:30;48.10;;;16.65;;
50733;SDS011;36701;51.798;19.474;2022-11-15T05:38:21;48.90;;;15.88;;
50733;SDS011;36701;51.798;19.474;2022-11-15T05:41:07;44.95;;;16.05;;
50733;SDS011;36701;51.798;19.474;2022-11-15T05:43:52;42.05;;;15.57;;
50733;SDS011;36701;51.798;19.474;2022-11-15T05:46:38;44.25;;;16.73;;
50733;SDS011;36701;51.798;19.474;2022-11-15T05:49:27;51.75;;;19.20;;
50733;SDS011;36701;51.798;19.474;2022-11-15T05:52:17;58.70;;;16.12;;
50733;SDS011;36701;51.798;19.474;2022-11-15T05:55:05;54.03;;;17.05;;
50733;SDS011;36701;51.798;19.474;2022-11-15T05:57:52;45.10;;;15.75;;
50733;SDS011;36701;51.798;19.474;2022-11-15T06:00:37;45.28;;;14.98;;
50733;SDS011;36701;51.798;19.474;2022-11-15T06:03:22;37.47;;;14.87;;
50733;SDS011;36701;51.798;19.474;2022-11-15T06:06:07;41.17;;;15.90;;
50733;SDS011;36701;51.798;19.474;2022-11-15T06:08:51;39.97;;;15.05;;
50733;SDS011;36701;51.798;19.474;2022-11-15T06:11:37;44.85;;;13.85;;
50733;SDS011;36701;51.798;19.474;2022-11-15T06:14:21;41.60;;;14.43;;
50733;SDS011;36701;51.798;19.474;2022-11-15T06:17:06;48.22;;;16.65;;
50733;SDS011;36701;51.798;19.474;2022-11-15T06:19:51;59.08;;;18.50;;
50733;SDS011;36701;51.798;19.474;2022-11-15T06:22:36;36.58;;;13.73;;
50733;SDS011;36701;51.798;19.474;2022-11-15T06:25:21;51.25;;;18.00;;
50733;SDS011;36701;51.798;19.474;2022-11-15T06:28:06;36.65;;;16.33;;
50733;SDS011;36701;51.798;19.474;2022-11-15T06:30:51;55.72;;;18.98;;
50733;SDS011;36701;51.798;19.474;2022-11-15T06:33:36;48.92;;;16.10;;
50733;SDS011;36701;51.798;19.474;2022-11-15T06:36:22;44.72;;;17.00;;
50733;SDS011;36701;51.798;19.474;2022-11-15T06:39:08;45.10;;;15.55;;
50733;SDS011;36701;51.798;19.474;2022-11-15T06:41:52;45.63;;;15.27;;
50733;SDS011;36701;51.798;19.474;2022-11-15T06:44:37;46.28;;;16.40;;
50733;SDS011;36701;51.798;19.474;2022-11-15T06:47:22;49.75;;;16.80;;
50733;SDS011;36701;51.798;19.474;2022-11-15T06:50:08;46.20;;;16.83;;
50733;SDS011;36701;51.798;19.474;2022-11-15T06:52:53;44.95;;;16.92;;
50733;SDS011;36701;51.798;19.474;2022-11-15T06:55:38;39.10;;;15.13;;
50733;SDS011;36701;51.798;19.474;2022-11-15T06:58:23;60.55;;;19.00;;
50733;SDS011;36701;51.798;19.474;2022-11-15T07:01:10;56.88;;;19.62;;
50733;SDS011;36701;51.798;19.474;2022-11-15T07:03:56;44.67;;;16.73;;
50733;SDS011;36701;51.798;19.474;2022-11-15T07:06:41;39.20;;;14.63;;
50733;SDS011;36701;51.798;19.474;2022-11-15T07:09:25;38.78;;;15.10;;
50733;SDS011;36701;51.798;19.474;2022-11-15T07:12:11;49.20;;;16.90;;
50733;SDS011;36701;51.798;19.474;2022-11-15T07:14:56;44.15;;;17.48;;
50733;SDS011;36701;51.798;19.474;2022-11-15T07:17:41;46.85;;;17.55;;
50733;SDS011;36701;51.798;19.474;2022-11-15T07:20:26;51.78;;;20.20;;
50733;SDS011;36701;51.798;19.474;2022-11-15T07:23:11;41.85;;;16.42;;
50733;SDS011;36701;51.798;19.474;2022-11-15T07:25:56;46.78;;;18.27;;
50733;SDS011;36701;51.798;19.474;2022-11-15T07:28:49;44.38;;;17.00;;
50733;SDS011;36701;51.798;19.474;2022-11-15T07:31:34;59.92;;;18.10;;
50733;SDS011;36701;51.798;19.474;2022-11-15T07:34:20;39.28;;;13.85;;
50733;SDS011;36701;51.798;19.474;2022-11-15T07:37:04;47.95;;;18.50;;
50733;SDS011;36701;51.798;19.474;2022-11-15T07:39:50;55.90;;;18.85;;
50733;SDS011;36701;51.798;19.474;2022-11-15T07:42:34;54.88;;;19.02;;
50733;SDS011;36701;51.798;19.474;2022-11-15T07:45:42;61.15;;;18.20;;
50733;SDS011;36701;51.798;19.474;2022-11-15T07:48:35;56.30;;;16.70;;
50733;SDS011;36701;51.798;19.474;2022-11-15T07:51:20;48.70;;;17.90;;
50733;SDS011;36701;51.798;19.474;2022-11-15T07:54:05;45.95;;;17.83;;
50733;SDS011;36701;51.798;19.474;2022-11-15T07:56:50;64.05;;;20.08;;
50733;SDS011;36701;51.798;19.474;2022-11-15T07:59:35;56.55;;;18.77;;
50733;SDS011;36701;51.798;19.474;2022-11-15T08:02:20;51.42;;;19.62;;
50733;SDS011;36701;51.798;19.474;2022-11-15T08:05:05;52.13;;;18.10;;
50733;SDS011;36701;51.798;19.474;2022-11-15T08:07:50;50.78;;;18.15;;
50733;SDS011;36701;51.798;19.474;2022-11-15T08:10:35;43.90;;;16.00;;
50733;SDS011;36701;51.798;19.474;2022-11-15T08:13:20;50.53;;;19.23;;
50733;SDS011;36701;51.798;19.474;2022-11-15T08:16:05;47.03;;;18.85;;
50733;SDS011;36701;51.798;19.474;2022-11-15T08:18:50;47.03;;;18.75;;
50733;SDS011;36701;51.798;19.474;2022-11-15T08:21:35;45.08;;;18.98;;
50733;SDS011;36701;51.798;19.474;2022-11-15T08:24:20;46.40;;;19.58;;
50733;SDS011;36701;51.798;19.474;2022-11-15T08:27:05;44.33;;;18.60;;
50733;SDS011;36701;51.798;19.474;2022-11-15T08:29:58;41.25;;;17.48;;
50733;SDS011;36701;51.798;19.474;2022-11-15T08:32:43;44.00;;;18.02;;
50733;SDS011;36701;51.798;19.474;2022-11-15T08:35:28;44.15;;;16.77;;
50733;SDS011;36701;51.798;19.474;2022-11-15T08:38:13;51.15;;;19.45;;
50733;SDS011;36701;51.798;19.474;2022-11-15T08:41:03;41.00;;;17.90;;
50733;SDS011;36701;51.798;19.474;2022-11-15T08:43:49;36.88;;;16.58;;
50733;SDS011;36701;51.798;19.474;2022-11-15T08:46:34;43.15;;;19.42;;
50733;SDS011;36701;51.798;19.474;2022-11-15T08:49:19;48.25;;;19.52;;
50733;SDS011;36701;51.798;19.474;2022-11-15T08:52:04;46.85;;;16.75;;
50733;SDS011;36701;51.798;19.474;2022-11-15T08:54:49;42.47;;;17.62;;
50733;SDS011;36701;51.798;19.474;2022-11-15T08:57:34;37.72;;;17.90;;
50733;SDS011;36701;51.798;19.474;2022-11-15T09:00:19;45.78;;;19.15;;
50733;SDS011;36701;51.798;19.474;2022-11-15T09:03:04;45.25;;;18.95;;
50733;SDS011;36701;51.798;19.474;2022-11-15T09:05:54;48.40;;;18.65;;
50733;SDS011;36701;51.798;19.474;2022-11-15T09:08:40;44.72;;;18.95;;
50733;SDS011;36701;51.798;19.474;2022-11-15T09:11:25;39.67;;;18.48;;
50733;SDS011;36701;51.798;19.474;2022-11-15T09:14:11;47.15;;;17.40;;
50733;SDS011;36701;51.798;19.474;2022-11-15T09:16:57;48.25;;;18.33;;
50733;SDS011;36701;51.798;19.474;2022-11-15T09:19:43;44.95;;;17.33;;
50733;SDS011;36701;51.798;19.474;2022-11-15T09:22:27;32.40;;;16.62;;
50733;SDS011;36701;51.798;19.474;2022-11-15T09:25:13;42.47;;;17.37;;
50733;SDS011;36701;51.798;19.474;2022-11-15T09:30:30;42.05;;;18.35;;
50733;SDS011;36701;51.798;19.474;2022-11-15T09:33:15;32.38;;;15.95;;
50733;SDS011;36701;51.798;19.474;2022-11-15T09:36:01;38.45;;;17.52;;
50733;SDS011;36701;51.798;19.474;2022-11-15T09:38:47;33.67;;;15.27;;
50733;SDS011;36701;51.798;19.474;2022-11-15T09:44:45;39.75;;;16.75;;
50733;SDS011;36701;51.798;19.474;2022-11-15T09:50:18;42.92;;;16.40;;
50733;SDS011;36701;51.798;19.474;2022-11-15T09:52:55;34.35;;;15.07;;
50733;SDS011;36701;51.798;19.474;2022-11-15T09:55:21;36.92;;;16.80;;
50733;SDS011;36701;51.798;19.474;2022-11-15T09:58:19;39.47;;;15.02;;
50733;SDS011;36701;51.798;19.474;2022-11-15T10:01:24;36.38;;;14.68;;
50733;SDS011;36701;51.798;19.474;2022-11-15T10:04:03;37.60;;;17.70;;
50733;SDS011;36701;51.798;19.474;2022-11-15T10:06:29;34.03;;;15.13;;
50733;SDS011;36701;51.798;19.474;2022-11-15T10:09:12;31.95;;;15.70;;
50733;SDS011;36701;51.798;19.474;2022-11-15T10:11:43;37.17;;;14.82;;
50733;SDS011;36701;51.798;19.474;2022-11-15T10:14:10;39.63;;;17.30;;
50733;SDS011;36701;51.798;19.474;2022-11-15T10:20:27;40.63;;;15.85;;
50733;SDS011;36701;51.798;19.474;2022-11-15T10:22:31;25.62;;;12.27;;
50733;SDS011;36701;51.798;19.474;2022-11-15T10:27:34;26.20;;;13.62;;
50733;SDS011;36701;51.798;19.474;2022-11-15T10:30:02;29.05;;;12.82;;
50733;SDS011;36701;51.798;19.474;2022-11-15T10:32:30;32.38;;;13.05;;
50733;SDS011;36701;51.798;19.474;2022-11-15T10:35:15;28.30;;;14.55;;
50733;SDS011;36701;51.798;19.474;2022-11-15T10:37:45;31.15;;;13.65;;
50733;SDS011;36701;51.798;19.474;2022-11-15T10:40:16;28.27;;;13.43;;
50733;SDS011;36701;51.798;19.474;2022-11-15T10:42:43;29.33;;;13.75;;
50733;SDS011;36701;51.798;19.474;2022-11-15T10:45:26;26.08;;;14.05;;
50733;SDS011;36701;51.798;19.474;2022-11-15T10:48:14;22.48;;;12.48;;
50733;SDS011;36701;51.798;19.474;2022-11-15T10:50:47;32.95;;;15.07;;
50733;SDS011;36701;51.798;19.474;2022-11-15T10:53:20;34.67;;;13.93;;
50733;SDS011;36701;51.798;19.474;2022-11-15T10:55:51;34.90;;;13.75;;
50733;SDS011;36701;51.798;19.474;2022-11-15T10:58:21;30.45;;;12.63;;
50733;SDS011;36701;51.798;19.474;2022-11-15T11:01:16;27.33;;;12.45;;
50733;SDS011;36701;51.798;19.474;2022-11-15T11:03:45;24.55;;;12.82;;
50733;SDS011;36701;51.798;19.474;2022-11-15T11:06:27;25.15;;;12.82;;
50733;SDS011;36701;51.798;19.474;2022-11-15T11:11:43;23.02;;;11.68;;
50733;SDS011;36701;51.798;19.474;2022-11-15T11:14:12;25.83;;;12.50;;
50733;SDS011;36701;51.798;19.474;2022-11-15T11:16:44;27.37;;;12.45;;
50733;SDS011;36701;51.798;19.474;2022-11-15T11:27:37;26.90;;;12.95;;
50733;SDS011;36701;51.798;19.474;2022-11-15T11:38:04;21.83;;;11.38;;
50733;SDS011;36701;51.798;19.474;2022-11-15T11:40:44;25.50;;;12.57;;
50733;SDS011;36701;51.798;19.474;2022-11-15T11:46:11;31.03;;;12.43;;
50733;SDS011;36701;51.798;19.474;2022-11-15T11:53:54;21.12;;;11.85;;
50733;SDS011;36701;51.798;19.474;2022-11-15T11:56:28;31.87;;;13.07;;
50733;SDS011;36701;51.798;19.474;2022-11-15T11:59:00;22.48;;;10.85;;
50733;SDS011;36701;51.798;19.474;2022-11-15T12:01:44;20.12;;;11.35;;
50733;SDS011;36701;51.798;19.474;2022-11-15T12:04:16;21.50;;;11.68;;
50733;SDS011;36701;51.798;19.474;2022-11-15T12:09:58;21.12;;;12.07;;
50733;SDS011;36701;51.798;19.474;2022-11-15T12:15:00;19.17;;;10.77;;
50733;SDS011;36701;51.798;19.474;2022-11-15T12:17:30;18.92;;;11.70;;
50733;SDS011;36701;51.798;19.474;2022-11-15T12:19:59;19.73;;;11.82;;
50733;SDS011;36701;51.798;19.474;2022-11-15T12:25:21;18.02;;;11.32;;
50733;SDS011;36701;51.798;19.474;2022-11-15T12:28:03;18.27;;;11.00;;
50733;SDS011;36701;51.798;19.474;2022-11-15T12:33:15;18.95;;;11.20;;
50733;SDS011;36701;51.798;19.474;2022-11-15T12:35:57;21.00;;;11.93;;
50733;SDS011;36701;51.798;19.474;2022-11-15T12:41:15;23.75;;;12.00;;
50733;SDS011;36701;51.798;19.474;2022-11-15T12:43:43;22.70;;;12.15;;
50733;SDS011;36701;51.798;19.474;2022-11-15T12:46:21;20.23;;;11.07;;
50733;SDS011;36701;51.798;19.474;2022-11-15T13:02:40;20.20;;;10.88;;
50733;SDS011;36701;51.798;19.474;2022-11-15T13:13:03;26.83;;;11.38;;
50733;SDS011;36701;51.798;19.474;2022-11-15T13:15:37;23.08;;;13.00;;
50733;SDS011;36701;51.798;19.474;2022-11-15T13:20:49;21.25;;;12.63;;
50733;SDS011;36701;51.798;19.474;2022-11-15T13:23:16;20.17;;;12.63;;
50733;SDS011;36701;51.798;19.474;2022-11-15T13:28:44;30.73;;;13.52;;
50733;SDS011;36701;51.798;19.474;2022-11-15T13:33:54;28.12;;;12.13;;
50733;SDS011;36701;51.798;19.474;2022-11-15T13:36:24;37.08;;;13.30;;
50733;SDS011;36701;51.798;19.474;2022-11-15T13:38:54;22.20;;;12.37;;
50733;SDS011;36701;51.798;19.474;2022-11-15T13:41:26;26.30;;;13.32;;
50733;SDS011;36701;51.798;19.474;2022-11-15T13:43:58;29.17;;;13.05;;
50733;SDS011;36701;51.798;19.474;2022-11-15T13:46:26;33.80;;;14.05;;
50733;SDS011;36701;51.798;19.474;2022-11-15T13:54:17;29.73;;;14.40;;
50733;SDS011;36701;51.798;19.474;2022-11-15T13:56:52;28.60;;;14.23;;
50733;SDS011;36701;51.798;19.474;2022-11-15T13:59:27;29.42;;;14.25;;
50733;SDS011;36701;51.798;19.474;2022-11-15T14:01:57;27.33;;;14.18;;
50733;SDS011;36701;51.798;19.474;2022-11-15T14:04:27;29.80;;;15.03;;
50733;SDS011;36701;51.798;19.474;2022-11-15T14:06:56;27.48;;;13.82;;
50733;SDS011;36701;51.798;19.474;2022-11-15T14:09:29;33.75;;;15.32;;
50733;SDS011;36701;51.798;19.474;2022-11-15T14:11:59;29.17;;;14.60;;
50733;SDS011;36701;51.798;19.474;2022-11-15T14:14:27;28.35;;;14.43;;
50733;SDS011;36701;51.798;19.474;2022-11-15T14:17:03;30.65;;;13.95;;
50733;SDS011;36701;51.798;19.474;2022-11-15T14:25:03;30.35;;;15.68;;
50733;SDS011;36701;51.798;19.474;2022-11-15T14:27:31;35.38;;;15.05;;
50733;SDS011;36701;51.798;19.474;2022-11-15T14:29:59;30.85;;;14.55;;
50733;SDS011;36701;51.798;19.474;2022-11-15T14:32:26;29.45;;;13.93;;
50733;SDS011;36701;51.798;19.474;2022-11-15T14:34:55;33.85;;;13.13;;
50733;SDS011;36701;51.798;19.474;2022-11-15T14:37:25;31.90;;;15.13;;
50733;SDS011;36701;51.798;19.474;2022-11-15T14:40:06;29.55;;;14.93;;
50733;SDS011;36701;51.798;19.474;2022-11-15T14:42:35;31.05;;;14.40;;
50733;SDS011;36701;51.798;19.474;2022-11-15T14:45:02;31.40;;;14.93;;
50733;SDS011;36701;51.798;19.474;2022-11-15T14:47:28;35.63;;;15.63;;
50733;SDS011;36701;51.798;19.474;2022-11-15T14:49:55;29.52;;;15.20;;
50733;SDS011;36701;51.798;19.474;2022-11-15T14:54:56;33.92;;;16.25;;
50733;SDS011;36701;51.798;19.474;2022-11-15T14:57:24;40.08;;;17.42;;
50733;SDS011;36701;51.798;19.474;2022-11-15T14:59:50;33.00;;;16.80;;
50733;SDS011;36701;51.798;19.474;2022-11-15T15:02:20;52.70;;;21.35;;
50733;SDS011;36701;51.798;19.474;2022-11-15T15:04:51;65.57;;;24.90;;
50733;SDS011;36701;51.798;19.474;2022-11-15T15:07:17;62.38;;;23.58;;
50733;SDS011;36701;51.798;19.474;2022-11-15T15:09:44;50.72;;;22.75;;
50733;SDS011;36701;51.798;19.474;2022-11-15T15:12:27;50.90;;;22.70;;
50733;SDS011;36701;51.798;19.474;2022-11-15T15:14:56;47.70;;;21.90;;
50733;SDS011;36701;51.798;19.474;2022-11-15T15:17:22;52.30;;;22.98;;
50733;SDS011;36701;51.798;19.474;2022-11-15T15:19:49;46.00;;;23.25;;
50733;SDS011;36701;51.798;19.474;2022-11-15T15:22:16;50.00;;;21.58;;
50733;SDS011;36701;51.798;19.474;2022-11-15T15:24:45;44.13;;;20.83;;
50733;SDS011;36701;51.798;19.474;2022-11-15T15:27:12;48.75;;;22.67;;
50733;SDS011;36701;51.798;19.474;2022-11-15T15:29:39;46.67;;;20.65;;
50733;SDS011;36701;51.798;19.474;2022-11-15T15:32:05;45.10;;;20.77;;
50733;SDS011;36701;51.798;19.474;2022-11-15T15:34:32;51.17;;;23.92;;
50733;SDS011;36701;51.798;19.474;2022-11-15T15:37:17;46.55;;;23.48;;
50733;SDS011;36701;51.798;19.474;2022-11-15T15:39:51;51.00;;;25.48;;
50733;SDS011;36701;51.798;19.474;2022-11-15T15:42:19;60.55;;;26.25;;
50733;SDS011;36701;51.798;19.474;2022-11-15T15:44:46;56.90;;;26.15;;
50733;SDS011;36701;51.798;19.474;2022-11-15T15:47:13;54.90;;;23.70;;
50733;SDS011;36701;51.798;19.474;2022-11-15T15:49:43;52.85;;;23.20;;
50733;SDS011;36701;51.798;19.474;2022-11-15T15:52:09;61.80;;;24.77;;
50733;SDS011;36701;51.798;19.474;2022-11-15T15:54:36;60.65;;;27.80;;
50733;SDS011;36701;51.798;19.474;2022-11-15T15:57:02;54.58;;;24.87;;
50733;SDS011;36701;51.798;19.474;2022-11-15T15:59:29;66.78;;;28.48;;
50733;SDS011;36701;51.798;19.474;2022-11-15T16:01:55;68.70;;;27.98;;
50733;SDS011;36701;51.798;19.474;2022-11-15T16:04:22;65.10;;;29.23;;
50733;SDS011;36701;51.798;19.474;2022-11-15T16:06:49;72.85;;;27.95;;
50733;SDS011;36701;51.798;19.474;2022-11-15T16:09:20;65.05;;;30.90;;
50733;SDS011;36701;51.798;19.474;2022-11-15T16:12:09;66.28;;;28.75;;
50733;SDS011;36701;51.798;19.474;2022-11-15T16:14:36;61.47;;;28.00;;
50733;SDS011;36701;51.798;19.474;2022-11-15T16:17:03;66.60;;;27.67;;
50733;SDS011;36701;51.798;19.474;2022-11-15T16:19:29;58.87;;;27.67;;
50733;SDS011;36701;51.798;19.474;2022-11-15T16:21:56;66.12;;;28.25;;
50733;SDS011;36701;51.798;19.474;2022-11-15T16:24:22;66.45;;;28.95;;
50733;SDS011;36701;51.798;19.474;2022-11-15T16:26:49;71.20;;;32.72;;
50733;SDS011;36701;51.798;19.474;2022-11-15T16:29:16;72.28;;;32.95;;
50733;SDS011;36701;51.798;19.474;2022-11-15T16:31:43;72.00;;;31.62;;
50733;SDS011;36701;51.798;19.474;2022-11-15T16:34:09;72.07;;;29.70;;
50733;SDS011;36701;51.798;19.474;2022-11-15T16:36:36;79.55;;;34.80;;
50733;SDS011;36701;51.798;19.474;2022-11-15T16:39:03;88.10;;;34.38;;
50733;SDS011;36701;51.798;19.474;2022-11-15T16:41:36;86.28;;;35.15;;
50733;SDS011;36701;51.798;19.474;2022-11-15T16:44:03;100.28;;;36.90;;
50733;SDS011;36701;51.798;19.474;2022-11-15T16:46:29;83.20;;;35.45;;
50733;SDS011;36701;51.798;19.474;2022-11-15T16:48:56;96.43;;;36.08;;
50733;SDS011;36701;51.798;19.474;2022-11-15T16:51:22;105.57;;;34.65;;
50733;SDS011;36701;51.798;19.474;2022-11-15T16:53:49;104.22;;;34.15;;
50733;SDS011;36701;51.798;19.474;2022-11-15T16:56:26;111.05;;;34.25;;
50733;SDS011;36701;51.798;19.474;2022-11-15T16:58:54;103.60;;;32.40;;
50733;SDS011;36701;51.798;19.474;2022-11-15T17:01:24;135.73;;;34.08;;
50733;SDS011;36701;51.798;19.474;2022-11-15T17:03:52;129.60;;;34.75;;
50733;SDS011;36701;51.798;19.474;2022-11-15T17:06:19;101.80;;;32.17;;
50733;SDS011;36701;51.798;19.474;2022-11-15T17:08:47;111.93;;;30.80;;
50733;SDS011;36701;51.798;19.474;2022-11-15T17:11:15;114.85;;;31.30;;
50733;SDS011;36701;51.798;19.474;2022-11-15T17:13:46;136.37;;;33.05;;
50733;SDS011;36701;51.798;19.474;2022-11-15T17:16:15;89.62;;;33.92;;
50733;SDS011;36701;51.798;19.474;2022-11-15T17:18:50;89.57;;;30.88;;
50733;SDS011;36701;51.798;19.474;2022-11-15T17:21:18;108.80;;;31.02;;
50733;SDS011;36701;51.798;19.474;2022-11-15T17:23:47;114.78;;;32.53;;
50733;SDS011;36701;51.798;19.474;2022-11-15T17:26:14;193.13;;;37.15;;
50733;SDS011;36701;51.798;19.474;2022-11-15T17:28:42;141.43;;;31.62;;
50733;SDS011;36701;51.798;19.474;2022-11-15T17:31:11;120.40;;;31.60;;
50733;SDS011;36701;51.798;19.474;2022-11-15T17:33:39;208.52;;;34.65;;